createdAt,value
2016-12-14T00:00:08.445Z,84.61
2016-12-14T00:01:08.031Z,84.92
2016-12-14T00:02:07.700Z,85.26
2016-12-14T00:03:08.442Z,85.42
2016-12-14T00:04:08.236Z,85.61
2016-12-14T00:05:22.599Z,85.27
2016-12-14T00:06:08.218Z,85.33
2016-12-14T00:07:07.957Z,86.27
2016-12-14T00:08:07.682Z,87.55
2016-12-14T00:09:08.548Z,87.32
2016-12-14T00:10:08.186Z,86.96
2016-12-14T00:11:07.815Z,86.40
2016-12-14T00:12:08.492Z,86.02
2016-12-14T00:13:08.184Z,85.74
2016-12-14T00:14:07.848Z,86.35
2016-12-14T00:15:08.512Z,86.41
2016-12-14T00:16:08.227Z,86.06
2016-12-14T00:17:08.010Z,85.87
2016-12-14T00:18:07.644Z,85.54
2016-12-14T00:19:08.230Z,85.38
2016-12-14T00:20:07.924Z,85.90
2016-12-14T00:21:08.629Z,86.31
2016-12-14T00:22:08.312Z,86.07
2016-12-14T00:23:07.959Z,85.75
2016-12-14T00:24:07.865Z,85.35
2016-12-14T00:25:08.535Z,85.52
2016-12-14T00:26:08.026Z,85.58
2016-12-14T00:27:08.196Z,85.66
2016-12-14T00:28:07.804Z,85.73
2016-12-14T00:29:08.492Z,85.91
2016-12-14T00:30:08.078Z,86.21
2016-12-14T00:31:07.798Z,85.85
2016-12-14T00:32:08.519Z,86.06
2016-12-14T00:33:08.115Z,86.05
2016-12-14T00:34:07.845Z,86.91
2016-12-14T00:35:08.684Z,86.77
2016-12-14T00:36:08.455Z,86.19
2016-12-14T00:37:08.275Z,86.00
2016-12-14T00:38:07.898Z,85.54
2016-12-14T00:39:08.614Z,86.80
2016-12-14T00:40:08.399Z,87.70
2016-12-14T00:41:08.037Z,87.20
2016-12-14T00:42:07.755Z,86.28
2016-12-14T00:43:08.510Z,85.81
2016-12-14T00:44:08.212Z,85.84
2016-12-14T00:45:07.919Z,85.68
2016-12-14T00:46:08.599Z,86.13
2016-12-14T00:47:08.414Z,86.17
2016-12-14T00:48:08.215Z,86.25
2016-12-14T00:49:07.946Z,85.99
2016-12-14T00:50:13.720Z,85.94
2016-12-14T00:51:08.382Z,85.51
2016-12-14T00:52:08.063Z,85.16
2016-12-14T00:53:07.780Z,85.18
2016-12-14T00:54:08.555Z,85.44
2016-12-14T00:55:08.237Z,85.83
2016-12-14T00:56:08.218Z,85.35
2016-12-14T00:57:07.796Z,84.68
2016-12-14T00:58:08.364Z,84.94
2016-12-14T00:59:08.007Z,84.86
2016-12-14T01:00:07.628Z,85.18
2016-12-14T01:01:07.941Z,84.91
2016-12-14T01:02:07.685Z,84.94
2016-12-14T01:03:08.357Z,85.09
2016-12-14T01:04:08.116Z,84.94
2016-12-14T01:05:07.838Z,84.54
2016-12-14T01:06:08.680Z,85.00
2016-12-14T01:07:08.188Z,85.35
2016-12-14T01:08:08.322Z,84.88
2016-12-14T01:09:07.805Z,85.00
2016-12-14T01:10:07.647Z,85.20
2016-12-14T01:11:07.722Z,85.47
2016-12-14T01:12:08.548Z,85.49
2016-12-14T01:13:08.267Z,85.30
2016-12-14T01:14:07.954Z,84.97
2016-12-14T01:15:07.958Z,85.48
2016-12-14T01:16:07.495Z,85.33
2016-12-14T01:17:08.590Z,85.40
2016-12-14T01:18:08.097Z,85.20
2016-12-14T01:19:07.710Z,84.90
2016-12-14T01:20:08.620Z,85.41
2016-12-14T01:21:08.076Z,84.94
2016-12-14T01:22:08.168Z,84.21
2016-12-14T01:23:08.201Z,84.17
2016-12-14T01:24:07.651Z,84.39
2016-12-14T01:25:08.411Z,84.16
2016-12-14T01:26:08.191Z,84.51
2016-12-14T01:27:07.798Z,83.92
2016-12-14T01:28:07.740Z,85.32
2016-12-14T01:29:07.627Z,85.19
2016-12-14T01:30:08.390Z,85.99
2016-12-14T01:31:08.118Z,85.72
2016-12-14T01:32:07.822Z,85.33
2016-12-14T01:33:08.480Z,86.08
2016-12-14T01:34:08.165Z,85.60
2016-12-14T01:35:13.561Z,84.79
2016-12-14T01:36:08.293Z,84.44
2016-12-14T01:37:07.919Z,84.00
2016-12-14T01:38:08.548Z,83.75
2016-12-14T01:39:08.260Z,84.29
2016-12-14T01:40:07.976Z,83.99
2016-12-14T01:41:07.577Z,83.83
2016-12-14T01:42:08.292Z,83.98
2016-12-14T01:43:07.966Z,83.20
2016-12-14T01:44:07.683Z,83.38
2016-12-14T01:45:08.318Z,82.91
2016-12-14T01:46:08.023Z,82.92
2016-12-14T01:47:07.719Z,83.10
2016-12-14T01:48:08.410Z,83.58
2016-12-14T01:49:08.106Z,83.65
2016-12-14T01:50:07.784Z,82.68
2016-12-14T01:51:08.443Z,82.78
2016-12-14T01:52:07.638Z,82.31
2016-12-14T01:53:08.298Z,81.97
2016-12-14T01:54:08.009Z,81.93
2016-12-14T01:55:07.706Z,81.37
2016-12-14T01:56:08.256Z,81.76
2016-12-14T01:57:08.254Z,82.07
2016-12-14T01:58:08.009Z,82.27
2016-12-14T01:59:07.672Z,82.65
2016-12-14T02:00:08.452Z,83.31
2016-12-14T02:01:08.150Z,82.90
2016-12-14T02:02:07.852Z,82.37
2016-12-14T02:03:08.566Z,82.56
2016-12-14T02:04:08.256Z,82.37
2016-12-14T02:05:08.020Z,81.80
2016-12-14T02:06:07.981Z,81.70
2016-12-14T02:07:07.491Z,81.74
2016-12-14T02:08:08.606Z,82.30
2016-12-14T02:09:08.350Z,81.81
2016-12-14T02:10:08.018Z,81.54
2016-12-14T02:11:07.486Z,81.66
2016-12-14T02:12:08.177Z,80.73
2016-12-14T02:13:07.971Z,79.81
2016-12-14T02:14:07.647Z,80.99
2016-12-14T02:15:08.319Z,81.60
2016-12-14T02:16:08.065Z,80.99
2016-12-14T02:17:08.002Z,80.99
2016-12-14T02:18:07.721Z,80.15
2016-12-14T02:19:08.362Z,80.00
2016-12-14T02:20:08.075Z,81.99
2016-12-14T02:21:07.803Z,82.79
2016-12-14T02:22:08.679Z,81.29
2016-12-14T02:23:08.331Z,80.27
2016-12-14T02:24:07.979Z,81.03
2016-12-14T02:25:07.866Z,81.26
2016-12-14T02:26:08.560Z,80.60
2016-12-14T02:27:08.165Z,81.64
2016-12-14T02:28:07.967Z,81.03
2016-12-14T02:29:07.853Z,82.63
2016-12-14T02:30:08.590Z,81.85
2016-12-14T02:31:08.342Z,80.90
2016-12-14T02:32:08.041Z,81.04
2016-12-14T02:33:07.606Z,80.75
2016-12-14T02:34:08.299Z,79.99
2016-12-14T02:35:07.835Z,80.54
2016-12-14T02:36:08.505Z,80.85
2016-12-14T02:37:08.414Z,80.16
2016-12-14T02:38:08.077Z,78.51
2016-12-14T02:39:07.693Z,78.96
2016-12-14T02:40:08.270Z,78.65
2016-12-14T02:41:07.725Z,78.74
2016-12-14T02:42:08.515Z,78.67
2016-12-14T02:43:08.337Z,79.03
2016-12-14T02:44:08.137Z,78.22
2016-12-14T02:45:07.789Z,77.42
2016-12-14T02:46:08.396Z,77.49
2016-12-14T02:47:08.100Z,78.07
2016-12-14T02:48:08.259Z,77.82
2016-12-14T02:49:07.865Z,78.47
2016-12-14T02:50:08.479Z,77.79
2016-12-14T02:51:08.078Z,78.19
2016-12-14T02:52:07.771Z,78.30
2016-12-14T02:53:08.458Z,78.34
2016-12-14T02:54:08.054Z,78.93
2016-12-14T02:55:07.634Z,79.09
2016-12-14T02:56:08.063Z,78.41
2016-12-14T02:57:07.871Z,77.83
2016-12-14T02:58:08.575Z,77.86
2016-12-14T02:59:08.289Z,76.76
2016-12-14T03:00:07.900Z,78.02
2016-12-14T03:01:08.432Z,78.02
2016-12-14T03:02:08.657Z,78.57
2016-12-14T03:03:08.446Z,78.49
2016-12-14T03:04:08.072Z,78.14
2016-12-14T03:05:07.768Z,77.43
2016-12-14T03:06:08.449Z,77.62
2016-12-14T03:07:08.046Z,76.83
2016-12-14T03:08:07.672Z,75.91
2016-12-14T03:09:08.427Z,75.67
2016-12-14T03:10:08.171Z,77.27
2016-12-14T03:11:07.784Z,76.76
2016-12-14T03:12:08.355Z,76.19
2016-12-14T03:13:08.280Z,76.33
2016-12-14T03:14:07.944Z,76.21
2016-12-14T03:15:07.633Z,76.07
2016-12-14T03:16:08.498Z,77.37
2016-12-14T03:17:08.260Z,76.54
2016-12-14T03:18:07.910Z,76.09
2016-12-14T03:19:08.574Z,75.35
2016-12-14T03:20:08.270Z,75.47
2016-12-14T03:21:08.040Z,75.90
2016-12-14T03:22:07.891Z,75.78
2016-12-14T03:23:08.622Z,75.39
2016-12-14T03:24:08.285Z,75.52
2016-12-14T03:25:08.530Z,76.23
2016-12-14T03:26:08.214Z,76.24
2016-12-14T03:27:09.328Z,76.72
2016-12-14T03:28:13.880Z,76.94
2016-12-14T03:29:08.519Z,77.46
2016-12-14T03:30:08.188Z,77.30
2016-12-14T03:31:07.748Z,76.87
2016-12-14T03:32:08.348Z,79.03
2016-12-14T03:33:07.992Z,78.00
2016-12-14T03:34:07.665Z,78.47
2016-12-14T03:35:08.262Z,79.45
2016-12-14T03:36:07.943Z,79.50
2016-12-14T03:37:07.586Z,79.50
2016-12-14T03:38:08.274Z,80.28
2016-12-14T03:39:08.079Z,81.16
2016-12-14T03:40:07.720Z,79.27
2016-12-14T03:41:08.399Z,80.86
2016-12-14T03:42:08.061Z,79.99
2016-12-14T03:43:07.749Z,79.74
2016-12-14T03:44:08.747Z,79.71
2016-12-14T03:45:08.531Z,80.09
2016-12-14T03:46:08.312Z,78.53
2016-12-14T03:47:07.992Z,79.79
2016-12-14T03:48:07.676Z,79.23
2016-12-14T03:49:08.410Z,79.15
2016-12-14T03:50:08.113Z,77.82
2016-12-14T03:51:07.723Z,78.03
2016-12-14T03:52:08.421Z,77.40
2016-12-14T03:53:08.084Z,77.47
2016-12-14T03:54:07.839Z,77.45
2016-12-14T03:55:08.544Z,76.24
2016-12-14T03:56:08.212Z,76.34
2016-12-14T03:57:07.858Z,75.39
2016-12-14T03:58:08.533Z,76.84
2016-12-14T03:59:08.149Z,75.34
2016-12-14T04:00:07.739Z,74.56
2016-12-14T04:01:08.578Z,74.93
2016-12-14T04:02:08.259Z,75.02
2016-12-14T04:03:07.990Z,75.59
2016-12-14T04:04:07.541Z,76.11
2016-12-14T04:05:08.272Z,75.60
2016-12-14T04:06:07.821Z,78.02
2016-12-14T04:07:08.686Z,78.45
2016-12-14T04:08:08.489Z,78.09
2016-12-14T04:09:08.143Z,79.66
2016-12-14T04:10:07.993Z,80.93
2016-12-14T04:11:07.777Z,80.45
2016-12-14T04:12:08.443Z,80.15
2016-12-14T04:13:08.120Z,79.07
2016-12-14T04:14:07.761Z,78.96
2016-12-14T04:15:08.374Z,78.47
2016-12-14T04:16:09.573Z,78.85
2016-12-14T04:17:08.437Z,78.82
2016-12-14T04:18:08.210Z,78.62
2016-12-14T04:19:07.801Z,79.17
2016-12-14T04:20:08.533Z,79.03
2016-12-14T04:21:08.075Z,79.03
2016-12-14T04:22:08.461Z,78.70
2016-12-14T04:23:08.173Z,79.83
2016-12-14T04:24:07.748Z,79.28
2016-12-14T04:25:08.585Z,79.31
2016-12-14T04:26:08.239Z,78.77
2016-12-14T04:27:07.842Z,79.22
2016-12-14T04:28:08.543Z,78.48
2016-12-14T04:29:08.168Z,80.29
2016-12-14T04:30:08.158Z,79.60
2016-12-14T04:31:07.807Z,78.48
2016-12-14T04:32:08.683Z,77.43
2016-12-14T04:33:08.397Z,77.13
2016-12-14T04:34:08.001Z,77.02
2016-12-14T04:35:07.630Z,76.03
2016-12-14T04:36:08.244Z,74.29
2016-12-14T04:37:07.858Z,74.07
2016-12-14T04:38:08.609Z,74.54
2016-12-14T04:39:08.253Z,74.78
2016-12-14T04:40:07.865Z,76.47
2016-12-14T04:41:08.752Z,75.41
2016-12-14T04:42:08.580Z,76.55
2016-12-14T04:43:08.263Z,76.34
2016-12-14T04:44:08.052Z,76.29
2016-12-14T04:45:07.604Z,76.75
2016-12-14T04:46:08.329Z,77.42
2016-12-14T04:47:08.556Z,77.58
2016-12-14T04:48:08.145Z,77.23
2016-12-14T04:49:07.959Z,76.60
2016-12-14T04:50:07.615Z,77.13
2016-12-14T04:51:08.277Z,78.55
2016-12-14T04:52:07.950Z,78.26
2016-12-14T04:53:07.549Z,77.93
2016-12-14T04:54:08.104Z,74.23
2016-12-14T04:55:08.129Z,74.38
2016-12-14T04:56:07.851Z,75.29
2016-12-14T04:57:08.337Z,74.80
2016-12-14T04:58:08.056Z,75.63
2016-12-14T04:59:07.694Z,76.01
2016-12-14T05:00:08.350Z,76.82
2016-12-14T05:01:08.245Z,77.06
2016-12-14T05:02:07.952Z,77.03
2016-12-14T05:03:07.563Z,76.80
2016-12-14T05:04:08.346Z,78.42
2016-12-14T05:05:08.145Z,79.92
2016-12-14T05:06:07.855Z,77.84
2016-12-14T05:07:08.605Z,78.03
2016-12-14T05:08:08.293Z,76.35
2016-12-14T05:09:07.967Z,77.98
2016-12-14T05:10:07.519Z,77.64
2016-12-14T05:11:08.238Z,77.53
2016-12-14T05:12:07.993Z,78.00
2016-12-14T05:13:07.606Z,75.86
2016-12-14T05:14:08.091Z,74.98
2016-12-14T05:15:08.024Z,74.05
2016-12-14T05:16:07.679Z,74.20
2016-12-14T05:17:08.469Z,74.49
2016-12-14T05:18:08.062Z,74.30
2016-12-14T05:19:07.661Z,73.96
2016-12-14T05:20:08.353Z,74.00
2016-12-14T05:21:08.113Z,74.23
2016-12-14T05:22:07.781Z,74.04
2016-12-14T05:23:08.436Z,72.95
2016-12-14T05:24:08.107Z,73.77
2016-12-14T05:25:10.816Z,74.08
2016-12-14T05:26:08.264Z,72.97
2016-12-14T05:27:08.082Z,73.28
2016-12-14T05:28:07.929Z,73.61
2016-12-14T05:29:08.574Z,73.62
2016-12-14T05:30:08.333Z,73.40
2016-12-14T05:31:07.913Z,73.39
2016-12-14T05:32:08.629Z,73.48
2016-12-14T05:33:08.403Z,73.14
2016-12-14T05:34:07.982Z,73.51
2016-12-14T05:35:07.675Z,73.69
2016-12-14T05:36:08.399Z,74.04
2016-12-14T05:37:08.276Z,75.12
2016-12-14T05:38:08.065Z,75.31
2016-12-14T05:39:07.744Z,73.91
2016-12-14T05:40:08.345Z,74.68
2016-12-14T05:41:08.286Z,74.34
2016-12-14T05:42:07.970Z,74.13
2016-12-14T05:43:07.637Z,76.70
2016-12-14T05:44:08.415Z,75.07
2016-12-14T05:45:08.141Z,74.31
2016-12-14T05:46:08.190Z,73.78
2016-12-14T05:47:08.230Z,73.09
2016-12-14T05:48:07.956Z,73.19
2016-12-14T05:49:07.596Z,73.31
2016-12-14T05:50:08.493Z,73.68
2016-12-14T05:51:08.975Z,73.61
2016-12-14T05:52:07.666Z,73.96
2016-12-14T05:53:08.520Z,74.73
2016-12-14T05:54:08.137Z,74.18
2016-12-14T05:55:07.751Z,75.02
2016-12-14T05:56:08.640Z,74.97
2016-12-14T05:57:08.095Z,74.28
2016-12-14T05:58:08.416Z,74.62
2016-12-14T05:59:08.144Z,76.55
2016-12-14T06:00:08.591Z,75.55
2016-12-14T06:01:08.384Z,75.47
2016-12-14T06:02:08.700Z,77.47
2016-12-14T06:03:08.294Z,78.60
2016-12-14T06:04:08.034Z,79.74
2016-12-14T06:05:07.723Z,79.46
2016-12-14T06:06:08.403Z,78.85
2016-12-14T06:07:08.127Z,77.47
2016-12-14T06:08:07.763Z,79.38
2016-12-14T06:09:08.944Z,81.13
2016-12-14T06:10:07.705Z,81.99
2016-12-14T06:11:09.153Z,83.53
2016-12-14T06:12:08.027Z,84.18
2016-12-14T06:13:07.605Z,85.37
2016-12-14T06:14:08.312Z,84.65
2016-12-14T06:15:08.008Z,85.50
2016-12-14T06:16:08.983Z,86.02
2016-12-14T06:17:07.771Z,86.04
2016-12-14T06:18:08.412Z,86.43
2016-12-14T06:19:07.959Z,85.97
2016-12-14T06:20:07.647Z,87.11
2016-12-14T06:21:16.318Z,86.44
2016-12-14T06:22:08.076Z,86.61
2016-12-14T06:23:07.771Z,86.72
2016-12-14T06:24:08.448Z,86.50
2016-12-14T06:25:08.111Z,85.97
2016-12-14T06:26:07.817Z,86.91
2016-12-14T06:27:08.621Z,88.27
2016-12-14T06:28:09.119Z,87.16
2016-12-14T06:29:07.774Z,88.35
2016-12-14T06:30:09.152Z,87.97
2016-12-14T06:31:07.841Z,85.95
2016-12-14T06:32:09.194Z,86.71
2016-12-14T06:33:07.967Z,86.88
2016-12-14T06:34:07.619Z,87.23
2016-12-14T06:35:08.470Z,87.97
2016-12-14T06:36:08.177Z,89.12
2016-12-14T06:37:07.963Z,87.15
2016-12-14T06:38:07.746Z,88.02
2016-12-14T06:39:08.527Z,87.48
2016-12-14T06:40:08.201Z,87.81
2016-12-14T06:41:07.981Z,88.04
2016-12-14T06:42:07.651Z,88.29
2016-12-14T06:43:08.405Z,87.02
2016-12-14T06:44:08.113Z,87.23
2016-12-14T06:45:07.712Z,88.02
2016-12-14T06:46:08.419Z,86.00
2016-12-14T06:47:08.068Z,88.49
2016-12-14T06:48:07.731Z,89.19
2016-12-14T06:49:08.444Z,87.00
2016-12-14T06:50:08.070Z,85.46
2016-12-14T06:51:07.710Z,86.84
2016-12-14T06:52:08.363Z,88.00
2016-12-14T06:53:08.076Z,86.96
2016-12-14T06:54:07.800Z,87.50
2016-12-14T06:55:08.441Z,86.70
2016-12-14T06:56:08.213Z,86.44
2016-12-14T06:57:08.005Z,87.48
2016-12-14T06:58:07.696Z,87.97
2016-12-14T06:59:08.392Z,87.63
2016-12-14T07:00:08.140Z,87.75
2016-12-14T07:01:07.835Z,87.09
2016-12-14T07:02:08.592Z,87.08
2016-12-14T07:03:08.178Z,87.44
2016-12-14T07:04:07.847Z,87.16
2016-12-14T07:05:08.500Z,86.71
2016-12-14T07:06:08.391Z,86.26
2016-12-14T07:07:08.141Z,86.98
2016-12-14T07:08:07.792Z,87.50
2016-12-14T07:09:08.529Z,88.08
2016-12-14T07:10:08.255Z,88.69
2016-12-14T07:11:07.800Z,88.41
2016-12-14T07:12:08.633Z,89.63
2016-12-14T07:13:08.220Z,89.67
2016-12-14T07:14:07.979Z,89.06
2016-12-14T07:15:07.644Z,89.77
2016-12-14T07:16:08.382Z,90.46
2016-12-14T07:17:08.143Z,89.43
2016-12-14T07:18:07.774Z,88.72
2016-12-14T07:19:08.533Z,88.25
2016-12-14T07:20:08.143Z,88.39
2016-12-14T07:21:07.824Z,88.54
2016-12-14T07:22:08.654Z,87.82
2016-12-14T07:23:08.459Z,88.55
2016-12-14T07:24:07.912Z,88.95
2016-12-14T07:25:08.149Z,88.81
2016-12-14T07:26:07.787Z,88.25
2016-12-14T07:27:09.254Z,88.57
2016-12-14T07:28:07.919Z,88.18
2016-12-14T07:29:08.718Z,87.50
2016-12-14T07:30:08.370Z,86.45
2016-12-14T07:31:08.159Z,85.53
2016-12-14T07:32:07.847Z,86.62
2016-12-14T07:33:08.620Z,86.20
2016-12-14T07:34:08.386Z,86.25
2016-12-14T07:35:08.048Z,87.63
2016-12-14T07:36:07.928Z,89.95
2016-12-14T07:37:08.677Z,90.58
2016-12-14T07:38:08.400Z,89.25
2016-12-14T07:39:08.062Z,89.65
2016-12-14T07:40:07.857Z,88.31
2016-12-14T07:41:08.597Z,87.33
2016-12-14T07:42:08.424Z,88.71
2016-12-14T07:43:08.163Z,87.83
2016-12-14T07:44:08.024Z,88.75
2016-12-14T07:45:07.742Z,88.15
2016-12-14T07:46:08.548Z,86.49
2016-12-14T07:47:08.212Z,87.45
2016-12-14T07:48:07.965Z,84.97
2016-12-14T07:49:07.688Z,83.22
2016-12-14T07:50:08.387Z,82.81
2016-12-14T07:51:08.357Z,82.30
2016-12-14T07:52:08.005Z,81.87
2016-12-14T07:53:07.615Z,81.00
2016-12-14T07:54:09.170Z,83.85
2016-12-14T07:55:07.832Z,82.47
2016-12-14T07:56:08.714Z,85.16
2016-12-14T07:57:08.388Z,85.49
2016-12-14T07:58:08.102Z,85.31
2016-12-14T07:59:07.785Z,84.89
2016-12-14T08:00:08.489Z,82.82
2016-12-14T08:01:08.123Z,81.53
2016-12-14T08:02:07.753Z,81.71
2016-12-14T08:03:09.276Z,81.59
2016-12-14T08:04:07.906Z,80.71
2016-12-14T08:05:08.603Z,80.63
2016-12-14T08:06:08.227Z,81.38
2016-12-14T08:07:07.880Z,81.57
2016-12-14T08:08:08.708Z,82.37
2016-12-14T08:09:08.346Z,81.72
2016-12-14T08:10:07.937Z,82.18
2016-12-14T08:11:07.763Z,82.26
2016-12-14T08:12:08.484Z,81.90
2016-12-14T08:13:08.162Z,84.20
2016-12-14T08:14:07.889Z,83.31
2016-12-14T08:15:08.529Z,82.61
2016-12-14T08:16:08.210Z,82.26
2016-12-14T08:17:07.963Z,82.95
2016-12-14T08:18:07.798Z,82.52
2016-12-14T08:19:08.406Z,80.79
2016-12-14T08:20:08.168Z,81.53
2016-12-14T08:21:07.947Z,82.16
2016-12-14T08:22:07.656Z,82.05
2016-12-14T08:23:08.316Z,81.57
2016-12-14T08:24:07.884Z,81.55
2016-12-14T08:25:08.709Z,82.10
2016-12-14T08:26:08.307Z,81.88
2016-12-14T08:27:07.928Z,82.79
2016-12-14T08:28:07.622Z,83.21
2016-12-14T08:29:08.187Z,83.91
2016-12-14T08:30:07.818Z,83.25
2016-12-14T08:31:08.408Z,82.62
2016-12-14T08:32:08.237Z,83.14
2016-12-14T08:33:07.837Z,83.19
2016-12-14T08:34:08.537Z,83.16
2016-12-14T08:35:08.404Z,82.73
2016-12-14T08:36:08.106Z,83.30
2016-12-14T08:37:07.806Z,82.91
2016-12-14T08:38:08.572Z,83.70
2016-12-14T08:39:08.289Z,83.37
2016-12-14T08:40:08.022Z,83.40
2016-12-14T08:41:07.760Z,83.68
2016-12-14T08:42:08.444Z,83.10
2016-12-14T08:43:09.695Z,82.35
2016-12-14T08:44:08.467Z,81.68
2016-12-14T08:45:08.105Z,82.45
2016-12-14T08:46:07.844Z,81.91
2016-12-14T08:47:08.518Z,81.37
2016-12-14T08:48:08.127Z,80.01
2016-12-14T08:49:07.795Z,79.78
2016-12-14T08:50:08.499Z,79.82
2016-12-14T08:51:08.191Z,79.47
2016-12-14T08:52:14.185Z,79.82
2016-12-14T08:53:07.918Z,80.23
2016-12-14T08:54:08.563Z,80.46
2016-12-14T08:55:09.057Z,81.23
2016-12-14T08:56:07.651Z,80.44
2016-12-14T08:57:08.299Z,80.49
2016-12-14T08:58:07.950Z,79.29
2016-12-14T08:59:07.637Z,80.09
2016-12-14T09:00:08.455Z,81.39
2016-12-14T09:01:08.210Z,81.25
2016-12-14T09:02:07.878Z,80.88
2016-12-14T09:03:08.670Z,80.52
2016-12-14T09:04:08.341Z,79.96
2016-12-14T09:05:08.070Z,79.96
2016-12-14T09:06:07.732Z,80.44
2016-12-14T09:07:08.420Z,79.79
2016-12-14T09:08:07.971Z,79.12
2016-12-14T09:09:07.618Z,79.56
2016-12-14T09:10:08.418Z,78.87
2016-12-14T09:11:08.090Z,78.49
2016-12-14T09:12:07.868Z,77.67
2016-12-14T09:13:08.593Z,76.90
2016-12-14T09:14:09.113Z,77.04
2016-12-14T09:15:08.136Z,77.56
2016-12-14T09:16:07.851Z,76.66
2016-12-14T09:17:08.700Z,76.82
2016-12-14T09:18:08.334Z,76.67
2016-12-14T09:19:08.128Z,76.66
2016-12-14T09:20:07.848Z,75.33
2016-12-14T09:21:08.441Z,75.47
2016-12-14T09:22:08.068Z,74.97
2016-12-14T09:23:07.779Z,75.17
2016-12-14T09:24:08.638Z,75.41
2016-12-14T09:25:13.997Z,75.38
2016-12-14T09:26:07.618Z,75.21
2016-12-14T09:27:08.349Z,75.24
2016-12-14T09:28:08.017Z,74.23
2016-12-14T09:29:07.665Z,73.99
2016-12-14T09:30:08.367Z,73.86
2016-12-14T09:31:08.055Z,74.30
2016-12-14T09:32:15.386Z,75.15
2016-12-14T09:33:08.045Z,73.73
2016-12-14T09:34:07.642Z,74.06
2016-12-14T09:35:08.421Z,73.88
2016-12-14T09:36:08.085Z,73.50
2016-12-14T09:37:07.751Z,73.37
2016-12-14T09:38:08.503Z,72.93
2016-12-14T09:39:08.291Z,72.82
2016-12-14T09:40:08.081Z,72.38
2016-12-14T09:41:08.062Z,70.41
2016-12-14T09:42:07.626Z,71.72
2016-12-14T09:43:08.108Z,71.57
2016-12-14T09:44:08.365Z,71.01
2016-12-14T09:45:08.080Z,71.16
2016-12-14T09:46:07.751Z,71.39
2016-12-14T09:47:08.417Z,71.39
2016-12-14T09:48:08.145Z,71.11
2016-12-14T09:49:07.795Z,70.86
2016-12-14T09:50:08.491Z,71.15
2016-12-14T09:51:08.260Z,71.44
2016-12-14T09:52:08.029Z,71.64
2016-12-14T09:53:07.840Z,71.33
2016-12-14T09:54:08.618Z,70.50
2016-12-14T09:55:08.310Z,70.10
2016-12-14T09:56:07.984Z,70.27
2016-12-14T09:57:07.682Z,70.85
2016-12-14T09:58:08.388Z,70.63
2016-12-14T09:59:08.106Z,70.79
2016-12-14T10:00:07.972Z,70.91
2016-12-14T10:01:07.684Z,70.55
2016-12-14T10:02:08.297Z,71.02
2016-12-14T10:03:08.029Z,70.86
2016-12-14T10:04:07.727Z,70.64
2016-12-14T10:05:15.417Z,70.58
2016-12-14T10:06:13.867Z,69.77
2016-12-14T10:07:09.292Z,69.95
2016-12-14T10:08:08.481Z,68.99
2016-12-14T10:09:08.227Z,69.30
2016-12-14T10:10:07.929Z,69.59
2016-12-14T10:11:08.706Z,69.80
2016-12-14T10:12:08.296Z,69.78
2016-12-14T10:13:08.172Z,69.79
2016-12-14T10:14:07.833Z,69.76
2016-12-14T10:15:08.589Z,69.53
2016-12-14T10:16:08.451Z,69.71
2016-12-14T10:17:08.181Z,69.60
2016-12-14T10:18:07.808Z,69.99
2016-12-14T10:19:08.492Z,69.90
2016-12-14T10:20:08.112Z,69.87
2016-12-14T10:21:07.723Z,70.12
2016-12-14T10:22:08.450Z,70.38
2016-12-14T10:23:08.114Z,70.53
2016-12-14T10:24:07.761Z,70.95
2016-12-14T10:25:08.606Z,70.88
2016-12-14T10:26:08.340Z,70.59
2016-12-14T10:27:08.071Z,70.78
2016-12-14T10:28:07.631Z,70.62
2016-12-14T10:29:08.456Z,70.73
2016-12-14T10:30:08.087Z,70.54
2016-12-14T10:31:08.473Z,70.47
2016-12-14T10:32:08.154Z,70.19
2016-12-14T10:33:07.772Z,70.37
2016-12-14T10:34:08.511Z,70.42
2016-12-14T10:35:08.231Z,70.45
2016-12-14T10:36:07.977Z,69.98
2016-12-14T10:37:07.678Z,68.81
2016-12-14T10:38:08.354Z,68.50
2016-12-14T10:39:08.039Z,68.10
2016-12-14T10:40:07.677Z,68.99
2016-12-14T10:41:08.329Z,68.17
2016-12-14T10:42:07.761Z,67.42
2016-12-14T10:43:08.032Z,66.79
2016-12-14T10:44:08.449Z,66.77
2016-12-14T10:45:08.049Z,66.42
2016-12-14T10:46:07.683Z,66.45
2016-12-14T10:47:13.972Z,65.71
2016-12-14T10:48:07.669Z,65.75
2016-12-14T10:49:08.418Z,65.91
2016-12-14T10:50:08.132Z,65.13
2016-12-14T10:51:08.066Z,64.55
2016-12-14T10:52:07.703Z,63.98
2016-12-14T10:53:08.301Z,63.49
2016-12-14T10:54:08.080Z,63.72
2016-12-14T10:55:07.782Z,63.18
2016-12-14T10:56:08.442Z,63.70
2016-12-14T10:57:08.101Z,64.13
2016-12-14T10:58:07.728Z,64.34
2016-12-14T10:59:08.282Z,64.60
2016-12-14T11:00:07.917Z,64.80
2016-12-14T11:01:08.608Z,64.73
2016-12-14T11:02:08.447Z,64.73
2016-12-14T11:03:08.187Z,64.76
2016-12-14T11:04:07.765Z,64.60
2016-12-14T11:05:08.545Z,64.53
2016-12-14T11:06:08.271Z,64.50
2016-12-14T11:07:08.053Z,64.63
2016-12-14T11:08:07.740Z,63.00
2016-12-14T11:09:08.478Z,63.60
2016-12-14T11:10:08.039Z,63.76
2016-12-14T11:11:07.679Z,64.61
2016-12-14T11:12:08.414Z,65.43
2016-12-14T11:13:07.974Z,65.58
2016-12-14T11:14:07.549Z,65.72
2016-12-14T11:15:08.317Z,65.90
2016-12-14T11:16:07.975Z,65.92
2016-12-14T11:17:07.711Z,66.32
2016-12-14T11:18:08.350Z,66.32
2016-12-14T11:19:08.330Z,66.50
2016-12-14T11:20:07.991Z,66.46
2016-12-14T11:21:07.553Z,67.05
2016-12-14T11:22:08.327Z,67.19
2016-12-14T11:23:08.021Z,67.16
2016-12-14T11:24:07.647Z,67.51
2016-12-14T11:25:08.614Z,67.34
2016-12-14T11:26:08.171Z,67.89
2016-12-14T11:27:07.858Z,68.18
2016-12-14T11:28:08.444Z,68.32
2016-12-14T11:29:08.165Z,68.05
2016-12-14T11:30:07.875Z,68.12
2016-12-14T11:31:08.445Z,67.87
2016-12-14T11:32:08.107Z,67.79
2016-12-14T11:33:07.680Z,67.39
2016-12-14T11:34:14.145Z,67.20
2016-12-14T11:35:07.760Z,67.59
2016-12-14T11:36:08.623Z,67.56
2016-12-14T11:37:08.120Z,67.17
2016-12-14T11:38:08.271Z,67.07
2016-12-14T11:39:07.847Z,67.42
2016-12-14T11:40:08.425Z,66.97
2016-12-14T11:41:08.111Z,66.68
2016-12-14T11:42:07.915Z,66.71
2016-12-14T11:43:08.471Z,66.91
2016-12-14T11:44:08.028Z,66.93
2016-12-14T11:45:07.666Z,67.17
2016-12-14T11:46:08.461Z,67.65
2016-12-14T11:47:08.161Z,67.35
2016-12-14T11:48:07.799Z,67.58
2016-12-14T11:49:08.387Z,67.09
2016-12-14T11:50:08.050Z,66.72
2016-12-14T11:51:07.663Z,66.57
2016-12-14T11:52:08.528Z,66.37
2016-12-14T11:53:08.251Z,66.31
2016-12-14T11:54:07.940Z,64.92
2016-12-14T11:55:07.518Z,64.88
2016-12-14T11:56:08.273Z,64.32
2016-12-14T11:57:07.946Z,64.49
2016-12-14T11:58:07.592Z,64.06
2016-12-14T11:59:08.337Z,63.64
2016-12-14T12:00:07.941Z,61.64
2016-12-14T12:01:08.370Z,61.23
2016-12-14T12:02:19.168Z,60.51
2016-12-14T12:03:07.868Z,59.75
2016-12-14T12:04:08.401Z,60.33
2016-12-14T12:05:07.966Z,60.10
2016-12-14T12:06:07.652Z,59.95
2016-12-14T12:07:08.380Z,59.64
2016-12-14T12:08:08.165Z,59.83
2016-12-14T12:09:07.818Z,59.95
2016-12-14T12:10:08.670Z,59.84
2016-12-14T12:11:08.272Z,60.20
2016-12-14T12:12:07.872Z,59.95
2016-12-14T12:13:08.623Z,60.08
2016-12-14T12:14:08.287Z,60.61
2016-12-14T12:15:08.010Z,60.25
2016-12-14T12:16:07.691Z,59.78
2016-12-14T12:17:08.386Z,60.03
2016-12-14T12:18:08.162Z,59.96
2016-12-14T12:19:07.898Z,60.27
2016-12-14T12:20:08.700Z,60.25
2016-12-14T12:21:08.486Z,60.55
2016-12-14T12:22:08.151Z,60.63
2016-12-14T12:23:07.741Z,60.65
2016-12-14T12:24:08.541Z,60.61
2016-12-14T12:25:08.212Z,60.52
2016-12-14T12:26:08.032Z,60.23
2016-12-14T12:27:07.801Z,60.58
2016-12-14T12:28:08.256Z,60.44
2016-12-14T12:29:08.073Z,60.38
2016-12-14T12:30:07.735Z,60.22
2016-12-14T12:31:08.362Z,60.44
2016-12-14T12:32:08.241Z,60.55
2016-12-14T12:33:07.917Z,60.45
2016-12-14T12:34:08.696Z,60.83
2016-12-14T12:35:08.379Z,61.02
2016-12-14T12:36:08.048Z,61.10
2016-12-14T12:37:07.706Z,60.31
2016-12-14T12:38:08.499Z,59.72
2016-12-14T12:39:08.236Z,59.96
2016-12-14T12:40:08.030Z,59.78
2016-12-14T12:41:07.761Z,60.15
2016-12-14T12:42:08.588Z,60.95
2016-12-14T12:43:08.413Z,61.01
2016-12-14T12:44:08.119Z,60.52
2016-12-14T12:45:07.739Z,60.26
2016-12-14T12:46:08.378Z,59.98
2016-12-14T12:47:08.011Z,59.43
2016-12-14T12:48:07.709Z,59.36
2016-12-14T12:49:08.343Z,59.54
2016-12-14T12:50:07.981Z,59.22
2016-12-14T12:51:07.690Z,59.25
2016-12-14T12:52:09.341Z,58.83